sensor_id;sensor_type;location;lat;lon;timestamp;P1;durP1;ratioP1;P2;durP2;ratioP2
55003;SDS011;40900;52.710;6.438;2023-05-14T00:01:58;18.15;;;11.52;;
55003;SDS011;40900;52.710;6.438;2023-05-14T00:04:26;16.13;;;11.23;;
55003;SDS011;40900;52.710;6.438;2023-05-14T00:06:52;18.40;;;11.45;;
55003;SDS011;40900;52.710;6.438;2023-05-14T00:09:18;17.38;;;11.35;;
55003;SDS011;40900;52.710;6.438;2023-05-14T00:11:44;20.05;;;11.43;;
55003;SDS011;40900;52.710;6.438;2023-05-14T00:14:10;17.70;;;10.90;;
55003;SDS011;40900;52.710;6.438;2023-05-14T00:16:36;18.08;;;10.48;;
55003;SDS011;40900;52.710;6.438;2023-05-14T00:19:02;18.50;;;11.32;;
55003;SDS011;40900;52.710;6.438;2023-05-14T00:21:27;17.02;;;10.50;;
55003;SDS011;40900;52.710;6.438;2023-05-14T00:23:53;23.58;;;11.32;;
55003;SDS011;40900;52.710;6.438;2023-05-14T00:26:19;18.58;;;11.25;;
55003;SDS011;40900;52.710;6.438;2023-05-14T00:28:45;19.30;;;11.77;;
55003;SDS011;40900;52.710;6.438;2023-05-14T00:31:11;20.63;;;12.25;;
55003;SDS011;40900;52.710;6.438;2023-05-14T00:33:37;25.30;;;11.90;;
55003;SDS011;40900;52.710;6.438;2023-05-14T00:36:03;22.75;;;11.07;;
55003;SDS011;40900;52.710;6.438;2023-05-14T00:38:29;18.50;;;10.93;;
55003;SDS011;40900;52.710;6.438;2023-05-14T00:40:55;20.30;;;11.73;;
55003;SDS011;40900;52.710;6.438;2023-05-14T00:43:21;19.27;;;11.05;;
55003;SDS011;40900;52.710;6.438;2023-05-14T00:45:48;17.67;;;11.00;;
55003;SDS011;40900;52.710;6.438;2023-05-14T00:48:15;20.27;;;11.18;;
55003;SDS011;40900;52.710;6.438;2023-05-14T00:50:41;24.52;;;12.07;;
55003;SDS011;40900;52.710;6.438;2023-05-14T00:53:08;16.48;;;11.48;;
55003;SDS011;40900;52.710;6.438;2023-05-14T00:55:37;16.65;;;11.13;;
55003;SDS011;40900;52.710;6.438;2023-05-14T00:58:11;18.63;;;11.70;;
55003;SDS011;40900;52.710;6.438;2023-05-14T01:00:38;23.00;;;11.10;;
55003;SDS011;40900;52.710;6.438;2023-05-14T01:03:05;20.55;;;12.10;;
55003;SDS011;40900;52.710;6.438;2023-05-14T01:08:22;21.92;;;13.05;;
55003;SDS011;40900;52.710;6.438;2023-05-14T01:10:59;19.42;;;12.13;;
55003;SDS011;40900;52.710;6.438;2023-05-14T01:16:46;20.70;;;12.27;;
55003;SDS011;40900;52.710;6.438;2023-05-14T01:19:21;19.50;;;12.50;;
55003;SDS011;40900;52.710;6.438;2023-05-14T01:21:51;19.70;;;12.98;;
55003;SDS011;40900;52.710;6.438;2023-05-14T01:24:17;22.80;;;12.80;;
55003;SDS011;40900;52.710;6.438;2023-05-14T01:26:43;18.63;;;11.75;;
55003;SDS011;40900;52.710;6.438;2023-05-14T01:29:13;19.13;;;12.57;;
55003;SDS011;40900;52.710;6.438;2023-05-14T01:31:46;24.55;;;12.80;;
55003;SDS011;40900;52.710;6.438;2023-05-14T01:34:13;18.48;;;13.43;;
55003;SDS011;40900;52.710;6.438;2023-05-14T01:36:40;16.98;;;12.60;;
55003;SDS011;40900;52.710;6.438;2023-05-14T01:39:07;19.25;;;13.23;;
55003;SDS011;40900;52.710;6.438;2023-05-14T01:41:35;22.98;;;12.65;;
55003;SDS011;40900;52.710;6.438;2023-05-14T01:44:03;18.25;;;13.43;;
55003;SDS011;40900;52.710;6.438;2023-05-14T01:46:32;21.08;;;13.32;;
55003;SDS011;40900;52.710;6.438;2023-05-14T01:48:58;18.08;;;13.43;;
55003;SDS011;40900;52.710;6.438;2023-05-14T01:51:25;23.58;;;14.45;;
55003;SDS011;40900;52.710;6.438;2023-05-14T01:53:51;21.45;;;14.63;;
55003;SDS011;40900;52.710;6.438;2023-05-14T01:56:17;18.17;;;14.05;;
55003;SDS011;40900;52.710;6.438;2023-05-14T01:58:44;20.77;;;14.15;;
55003;SDS011;40900;52.710;6.438;2023-05-14T02:01:09;19.08;;;14.60;;
55003;SDS011;40900;52.710;6.438;2023-05-14T02:03:35;19.83;;;14.68;;
55003;SDS011;40900;52.710;6.438;2023-05-14T02:06:01;21.42;;;13.85;;
55003;SDS011;40900;52.710;6.438;2023-05-14T02:08:26;21.48;;;13.30;;
55003;SDS011;40900;52.710;6.438;2023-05-14T02:10:52;19.70;;;13.80;;
55003;SDS011;40900;52.710;6.438;2023-05-14T02:13:18;18.30;;;13.50;;
55003;SDS011;40900;52.710;6.438;2023-05-14T02:15:43;21.80;;;14.20;;
55003;SDS011;40900;52.710;6.438;2023-05-14T02:18:09;18.75;;;12.82;;
55003;SDS011;40900;52.710;6.438;2023-05-14T02:20:35;16.92;;;13.48;;
55003;SDS011;40900;52.710;6.438;2023-05-14T02:23:00;18.63;;;12.85;;
55003;SDS011;40900;52.710;6.438;2023-05-14T02:25:26;26.38;;;14.40;;
55003;SDS011;40900;52.710;6.438;2023-05-14T02:27:52;22.50;;;14.73;;
55003;SDS011;40900;52.710;6.438;2023-05-14T02:30:18;22.88;;;14.50;;
55003;SDS011;40900;52.710;6.438;2023-05-14T02:32:43;20.25;;;14.23;;
55003;SDS011;40900;52.710;6.438;2023-05-14T02:35:09;20.25;;;14.30;;
55003;SDS011;40900;52.710;6.438;2023-05-14T02:37:35;21.55;;;13.20;;
55003;SDS011;40900;52.710;6.438;2023-05-14T02:40:01;21.13;;;14.50;;
55003;SDS011;40900;52.710;6.438;2023-05-14T02:42:28;26.05;;;13.77;;
55003;SDS011;40900;52.710;6.438;2023-05-14T02:44:54;20.25;;;14.27;;
55003;SDS011;40900;52.710;6.438;2023-05-14T02:47:20;19.83;;;14.25;;
55003;SDS011;40900;52.710;6.438;2023-05-14T02:49:46;23.40;;;14.63;;
55003;SDS011;40900;52.710;6.438;2023-05-14T02:52:11;22.83;;;14.73;;
55003;SDS011;40900;52.710;6.438;2023-05-14T02:54:37;23.05;;;15.88;;
55003;SDS011;40900;52.710;6.438;2023-05-14T02:57:03;21.95;;;15.30;;
55003;SDS011;40900;52.710;6.438;2023-05-14T02:59:29;18.65;;;13.68;;
55003;SDS011;40900;52.710;6.438;2023-05-14T03:01:55;20.85;;;13.77;;
55003;SDS011;40900;52.710;6.438;2023-05-14T03:04:22;18.35;;;15.25;;
55003;SDS011;40900;52.710;6.438;2023-05-14T03:06:47;21.05;;;14.55;;
55003;SDS011;40900;52.710;6.438;2023-05-14T03:09:13;21.23;;;14.77;;
55003;SDS011;40900;52.710;6.438;2023-05-14T03:11:39;18.17;;;14.15;;
55003;SDS011;40900;52.710;6.438;2023-05-14T03:14:05;20.63;;;16.38;;
55003;SDS011;40900;52.710;6.438;2023-05-14T03:16:30;21.35;;;15.68;;
55003;SDS011;40900;52.710;6.438;2023-05-14T03:18:56;18.17;;;14.75;;
55003;SDS011;40900;52.710;6.438;2023-05-14T03:21:22;22.08;;;16.13;;
55003;SDS011;40900;52.710;6.438;2023-05-14T03:23:48;25.15;;;15.52;;
55003;SDS011;40900;52.710;6.438;2023-05-14T03:26:13;22.80;;;15.48;;
55003;SDS011;40900;52.710;6.438;2023-05-14T03:28:39;22.75;;;15.65;;
55003;SDS011;40900;52.710;6.438;2023-05-14T03:31:05;19.13;;;14.48;;
55003;SDS011;40900;52.710;6.438;2023-05-14T03:33:31;24.02;;;15.95;;
55003;SDS011;40900;52.710;6.438;2023-05-14T03:35:56;22.10;;;15.20;;
55003;SDS011;40900;52.710;6.438;2023-05-14T03:38:22;19.73;;;13.90;;
55003;SDS011;40900;52.710;6.438;2023-05-14T03:40:48;19.52;;;13.90;;
55003;SDS011;40900;52.710;6.438;2023-05-14T03:43:14;18.67;;;15.32;;
55003;SDS011;40900;52.710;6.438;2023-05-14T03:45:40;21.63;;;14.68;;
55003;SDS011;40900;52.710;6.438;2023-05-14T03:48:06;17.98;;;14.70;;
55003;SDS011;40900;52.710;6.438;2023-05-14T03:50:32;22.20;;;14.77;;
55003;SDS011;40900;52.710;6.438;2023-05-14T03:52:57;19.17;;;14.55;;
55003;SDS011;40900;52.710;6.438;2023-05-14T03:55:23;19.15;;;13.63;;
55003;SDS011;40900;52.710;6.438;2023-05-14T03:57:49;22.15;;;14.70;;
55003;SDS011;40900;52.710;6.438;2023-05-14T04:00:15;21.35;;;15.13;;
55003;SDS011;40900;52.710;6.438;2023-05-14T04:02:41;23.02;;;14.48;;
55003;SDS011;40900;52.710;6.438;2023-05-14T04:05:07;22.67;;;15.00;;
55003;SDS011;40900;52.710;6.438;2023-05-14T04:07:33;18.45;;;15.10;;
55003;SDS011;40900;52.710;6.438;2023-05-14T04:09:59;21.83;;;15.00;;
55003;SDS011;40900;52.710;6.438;2023-05-14T04:12:25;18.83;;;13.43;;
55003;SDS011;40900;52.710;6.438;2023-05-14T04:14:51;18.98;;;14.73;;
55003;SDS011;40900;52.710;6.438;2023-05-14T04:17:17;16.05;;;13.65;;
55003;SDS011;40900;52.710;6.438;2023-05-14T04:19:42;19.45;;;13.88;;
55003;SDS011;40900;52.710;6.438;2023-05-14T04:22:08;21.17;;;13.98;;
55003;SDS011;40900;52.710;6.438;2023-05-14T04:24:34;22.17;;;14.10;;
55003;SDS011;40900;52.710;6.438;2023-05-14T04:27:00;23.63;;;14.55;;
55003;SDS011;40900;52.710;6.438;2023-05-14T04:29:25;18.77;;;14.25;;
55003;SDS011;40900;52.710;6.438;2023-05-14T04:31:51;17.42;;;13.35;;
55003;SDS011;40900;52.710;6.438;2023-05-14T04:34:17;16.73;;;13.15;;
55003;SDS011;40900;52.710;6.438;2023-05-14T04:36:43;17.98;;;13.43;;
55003;SDS011;40900;52.710;6.438;2023-05-14T04:39:09;15.00;;;12.77;;
55003;SDS011;40900;52.710;6.438;2023-05-14T04:41:36;19.67;;;14.57;;
55003;SDS011;40900;52.710;6.438;2023-05-14T04:44:02;22.45;;;13.82;;
55003;SDS011;40900;52.710;6.438;2023-05-14T04:46:28;17.42;;;13.45;;
55003;SDS011;40900;52.710;6.438;2023-05-14T04:48:54;16.55;;;13.45;;
55003;SDS011;40900;52.710;6.438;2023-05-14T04:51:20;21.73;;;13.02;;
55003;SDS011;40900;52.710;6.438;2023-05-14T04:53:47;19.85;;;13.52;;
55003;SDS011;40900;52.710;6.438;2023-05-14T04:56:12;18.98;;;13.05;;
55003;SDS011;40900;52.710;6.438;2023-05-14T04:58:38;19.70;;;13.10;;
55003;SDS011;40900;52.710;6.438;2023-05-14T05:01:04;19.58;;;13.52;;
55003;SDS011;40900;52.710;6.438;2023-05-14T05:03:30;19.40;;;12.65;;
55003;SDS011;40900;52.710;6.438;2023-05-14T05:05:56;16.92;;;12.43;;
55003;SDS011;40900;52.710;6.438;2023-05-14T05:08:22;16.27;;;12.35;;
55003;SDS011;40900;52.710;6.438;2023-05-14T05:10:48;16.80;;;11.32;;
55003;SDS011;40900;52.710;6.438;2023-05-14T05:13:13;20.35;;;13.07;;
55003;SDS011;40900;52.710;6.438;2023-05-14T05:15:41;17.55;;;12.07;;
55003;SDS011;40900;52.710;6.438;2023-05-14T05:18:07;19.23;;;12.68;;
55003;SDS011;40900;52.710;6.438;2023-05-14T05:20:33;20.83;;;12.93;;
55003;SDS011;40900;52.710;6.438;2023-05-14T05:22:59;17.52;;;11.90;;
55003;SDS011;40900;52.710;6.438;2023-05-14T05:25:25;16.15;;;11.57;;
55003;SDS011;40900;52.710;6.438;2023-05-14T05:27:51;19.52;;;11.15;;
55003;SDS011;40900;52.710;6.438;2023-05-14T05:30:17;17.35;;;11.05;;
55003;SDS011;40900;52.710;6.438;2023-05-14T05:32:43;18.60;;;12.32;;
55003;SDS011;40900;52.710;6.438;2023-05-14T05:35:09;15.32;;;10.73;;
55003;SDS011;40900;52.710;6.438;2023-05-14T05:37:35;15.57;;;11.07;;
55003;SDS011;40900;52.710;6.438;2023-05-14T05:40:00;16.33;;;10.63;;
55003;SDS011;40900;52.710;6.438;2023-05-14T05:42:28;18.70;;;10.68;;
55003;SDS011;40900;52.710;6.438;2023-05-14T05:44:54;14.43;;;10.70;;
55003;SDS011;40900;52.710;6.438;2023-05-14T05:47:20;14.52;;;11.32;;
55003;SDS011;40900;52.710;6.438;2023-05-14T05:49:46;18.45;;;10.73;;
55003;SDS011;40900;52.710;6.438;2023-05-14T05:52:11;19.05;;;11.27;;
55003;SDS011;40900;52.710;6.438;2023-05-14T05:54:37;17.13;;;11.90;;
55003;SDS011;40900;52.710;6.438;2023-05-14T05:57:04;21.88;;;11.85;;
55003;SDS011;40900;52.710;6.438;2023-05-14T05:59:30;17.20;;;10.93;;
55003;SDS011;40900;52.710;6.438;2023-05-14T06:01:55;18.75;;;11.35;;
55003;SDS011;40900;52.710;6.438;2023-05-14T06:04:21;19.35;;;11.05;;
55003;SDS011;40900;52.710;6.438;2023-05-14T06:06:47;19.55;;;11.30;;
55003;SDS011;40900;52.710;6.438;2023-05-14T06:09:13;18.65;;;11.77;;
55003;SDS011;40900;52.710;6.438;2023-05-14T06:11:38;22.00;;;11.65;;
55003;SDS011;40900;52.710;6.438;2023-05-14T06:14:04;16.63;;;11.70;;
55003;SDS011;40900;52.710;6.438;2023-05-14T06:16:31;15.55;;;12.30;;
55003;SDS011;40900;52.710;6.438;2023-05-14T06:18:57;19.25;;;12.48;;
55003;SDS011;40900;52.710;6.438;2023-05-14T06:21:23;21.10;;;12.68;;
55003;SDS011;40900;52.710;6.438;2023-05-14T06:23:49;18.02;;;12.35;;
55003;SDS011;40900;52.710;6.438;2023-05-14T06:26:14;18.48;;;12.35;;
55003;SDS011;40900;52.710;6.438;2023-05-14T06:28:40;16.77;;;13.02;;
55003;SDS011;40900;52.710;6.438;2023-05-14T06:31:06;18.27;;;11.88;;
55003;SDS011;40900;52.710;6.438;2023-05-14T06:33:32;19.77;;;12.20;;
55003;SDS011;40900;52.710;6.438;2023-05-14T06:35:58;22.40;;;13.02;;
55003;SDS011;40900;52.710;6.438;2023-05-14T06:38:25;18.85;;;12.52;;
55003;SDS011;40900;52.710;6.438;2023-05-14T06:40:51;17.42;;;11.75;;
55003;SDS011;40900;52.710;6.438;2023-05-14T06:43:20;21.13;;;13.65;;
55003;SDS011;40900;52.710;6.438;2023-05-14T06:45:52;16.67;;;12.55;;
55003;SDS011;40900;52.710;6.438;2023-05-14T06:48:17;21.98;;;13.55;;
55003;SDS011;40900;52.710;6.438;2023-05-14T06:50:44;21.02;;;13.23;;
55003;SDS011;40900;52.710;6.438;2023-05-14T06:53:11;23.30;;;12.32;;
55003;SDS011;40900;52.710;6.438;2023-05-14T06:55:36;18.45;;;12.93;;
55003;SDS011;40900;52.710;6.438;2023-05-14T06:58:02;20.27;;;13.00;;
55003;SDS011;40900;52.710;6.438;2023-05-14T07:00:30;21.50;;;13.35;;
55003;SDS011;40900;52.710;6.438;2023-05-14T07:02:56;21.58;;;12.68;;
55003;SDS011;40900;52.710;6.438;2023-05-14T07:05:21;18.65;;;11.63;;
55003;SDS011;40900;52.710;6.438;2023-05-14T07:07:48;20.33;;;12.60;;
55003;SDS011;40900;52.710;6.438;2023-05-14T07:10:14;25.10;;;12.52;;
55003;SDS011;40900;52.710;6.438;2023-05-14T07:12:40;18.27;;;12.20;;
55003;SDS011;40900;52.710;6.438;2023-05-14T07:15:06;17.08;;;11.20;;
55003;SDS011;40900;52.710;6.438;2023-05-14T07:17:32;19.63;;;11.45;;
55003;SDS011;40900;52.710;6.438;2023-05-14T07:19:58;19.77;;;10.95;;
55003;SDS011;40900;52.710;6.438;2023-05-14T07:22:23;19.95;;;12.10;;
55003;SDS011;40900;52.710;6.438;2023-05-14T07:24:49;17.45;;;10.45;;
55003;SDS011;40900;52.710;6.438;2023-05-14T07:27:15;22.02;;;11.40;;
55003;SDS011;40900;52.710;6.438;2023-05-14T07:29:43;17.05;;;11.35;;
55003;SDS011;40900;52.710;6.438;2023-05-14T07:32:09;23.23;;;11.38;;
55003;SDS011;40900;52.710;6.438;2023-05-14T07:34:35;15.80;;;10.38;;
55003;SDS011;40900;52.710;6.438;2023-05-14T07:37:01;15.38;;;9.88;;
55003;SDS011;40900;52.710;6.438;2023-05-14T07:39:27;15.73;;;9.65;;
55003;SDS011;40900;52.710;6.438;2023-05-14T07:41:53;16.20;;;8.93;;
55003;SDS011;40900;52.710;6.438;2023-05-14T07:44:19;14.25;;;9.65;;
55003;SDS011;40900;52.710;6.438;2023-05-14T07:46:45;17.85;;;8.38;;
55003;SDS011;40900;52.710;6.438;2023-05-14T07:49:11;16.65;;;9.82;;
55003;SDS011;40900;52.710;6.438;2023-05-14T07:51:37;18.02;;;8.88;;
55003;SDS011;40900;52.710;6.438;2023-05-14T07:54:03;15.23;;;8.80;;
55003;SDS011;40900;52.710;6.438;2023-05-14T07:56:28;20.45;;;9.57;;
55003;SDS011;40900;52.710;6.438;2023-05-14T07:58:54;15.20;;;8.00;;
55003;SDS011;40900;52.710;6.438;2023-05-14T08:01:20;17.90;;;7.63;;
55003;SDS011;40900;52.710;6.438;2023-05-14T08:03:47;14.68;;;7.53;;
55003;SDS011;40900;52.710;6.438;2023-05-14T08:06:13;14.02;;;6.65;;
55003;SDS011;40900;52.710;6.438;2023-05-14T08:08:38;17.85;;;7.72;;
55003;SDS011;40900;52.710;6.438;2023-05-14T08:11:05;16.27;;;6.68;;
55003;SDS011;40900;52.710;6.438;2023-05-14T08:13:30;15.25;;;6.20;;
55003;SDS011;40900;52.710;6.438;2023-05-14T08:15:56;15.05;;;6.18;;
55003;SDS011;40900;52.710;6.438;2023-05-14T08:18:22;15.32;;;6.63;;
55003;SDS011;40900;52.710;6.438;2023-05-14T08:20:48;17.05;;;6.10;;
55003;SDS011;40900;52.710;6.438;2023-05-14T08:23:14;12.45;;;6.07;;
55003;SDS011;40900;52.710;6.438;2023-05-14T08:25:40;13.30;;;5.88;;
55003;SDS011;40900;52.710;6.438;2023-05-14T08:28:06;12.55;;;5.75;;
55003;SDS011;40900;52.710;6.438;2023-05-14T08:30:32;18.05;;;6.15;;
55003;SDS011;40900;52.710;6.438;2023-05-14T08:32:58;12.60;;;5.80;;
55003;SDS011;40900;52.710;6.438;2023-05-14T08:35:24;15.65;;;6.00;;
55003;SDS011;40900;52.710;6.438;2023-05-14T08:37:50;16.50;;;5.90;;
55003;SDS011;40900;52.710;6.438;2023-05-14T08:40:16;13.75;;;5.90;;
55003;SDS011;40900;52.710;6.438;2023-05-14T08:42:42;13.63;;;5.72;;
55003;SDS011;40900;52.710;6.438;2023-05-14T08:45:28;11.80;;;5.75;;
55003;SDS011;40900;52.710;6.438;2023-05-14T08:47:58;12.75;;;5.10;;
55003;SDS011;40900;52.710;6.438;2023-05-14T08:50:29;12.85;;;6.22;;
55003;SDS011;40900;52.710;6.438;2023-05-14T08:52:55;12.45;;;4.80;;
55003;SDS011;40900;52.710;6.438;2023-05-14T08:55:21;13.95;;;4.88;;
55003;SDS011;40900;52.710;6.438;2023-05-14T08:57:47;11.32;;;4.65;;
55003;SDS011;40900;52.710;6.438;2023-05-14T09:00:13;7.07;;;4.10;;
55003;SDS011;40900;52.710;6.438;2023-05-14T09:02:39;12.45;;;5.40;;
55003;SDS011;40900;52.710;6.438;2023-05-14T09:05:06;10.05;;;5.15;;
55003;SDS011;40900;52.710;6.438;2023-05-14T09:07:33;8.18;;;4.70;;
55003;SDS011;40900;52.710;6.438;2023-05-14T09:09:59;14.27;;;5.20;;
55003;SDS011;40900;52.710;6.438;2023-05-14T09:12:26;11.55;;;4.80;;
55003;SDS011;40900;52.710;6.438;2023-05-14T09:14:52;14.23;;;5.03;;
55003;SDS011;40900;52.710;6.438;2023-05-14T09:17:18;9.93;;;4.43;;
55003;SDS011;40900;52.710;6.438;2023-05-14T09:19:45;10.57;;;4.80;;
55003;SDS011;40900;52.710;6.438;2023-05-14T09:22:17;8.82;;;4.55;;
55003;SDS011;40900;52.710;6.438;2023-05-14T09:24:43;11.35;;;4.88;;
55003;SDS011;40900;52.710;6.438;2023-05-14T09:27:14;14.63;;;4.97;;
55003;SDS011;40900;52.710;6.438;2023-05-14T09:29:43;10.98;;;5.03;;
55003;SDS011;40900;52.710;6.438;2023-05-14T09:32:09;14.20;;;4.65;;
55003;SDS011;40900;52.710;6.438;2023-05-14T09:34:35;12.80;;;4.50;;
55003;SDS011;40900;52.710;6.438;2023-05-14T09:37:07;9.88;;;4.30;;
55003;SDS011;40900;52.710;6.438;2023-05-14T09:39:34;10.77;;;4.85;;
55003;SDS011;40900;52.710;6.438;2023-05-14T09:42:01;16.85;;;4.60;;
55003;SDS011;40900;52.710;6.438;2023-05-14T09:44:27;13.70;;;5.10;;
55003;SDS011;40900;52.710;6.438;2023-05-14T09:46:53;11.23;;;5.57;;
55003;SDS011;40900;52.710;6.438;2023-05-14T09:49:20;14.18;;;4.97;;
55003;SDS011;40900;52.710;6.438;2023-05-14T09:51:47;10.90;;;4.78;;
55003;SDS011;40900;52.710;6.438;2023-05-14T09:54:13;12.55;;;5.85;;
55003;SDS011;40900;52.710;6.438;2023-05-14T09:56:38;11.13;;;5.03;;
55003;SDS011;40900;52.710;6.438;2023-05-14T09:59:04;15.50;;;5.10;;
55003;SDS011;40900;52.710;6.438;2023-05-14T10:01:30;11.60;;;5.85;;
55003;SDS011;40900;52.710;6.438;2023-05-14T10:03:59;12.63;;;5.15;;
55003;SDS011;40900;52.710;6.438;2023-05-14T10:06:30;14.32;;;5.78;;
55003;SDS011;40900;52.710;6.438;2023-05-14T10:08:59;12.70;;;5.35;;
55003;SDS011;40900;52.710;6.438;2023-05-14T10:11:27;11.60;;;5.03;;
55003;SDS011;40900;52.710;6.438;2023-05-14T10:14:02;9.40;;;5.18;;
55003;SDS011;40900;52.710;6.438;2023-05-14T10:16:36;11.32;;;5.35;;
55003;SDS011;40900;52.710;6.438;2023-05-14T10:19:08;10.48;;;5.15;;
55003;SDS011;40900;52.710;6.438;2023-05-14T10:21:37;13.77;;;4.63;;
55003;SDS011;40900;52.710;6.438;2023-05-14T10:24:05;12.48;;;5.25;;
55003;SDS011;40900;52.710;6.438;2023-05-14T10:26:33;9.18;;;4.43;;
55003;SDS011;40900;52.710;6.438;2023-05-14T10:29:03;11.43;;;4.70;;
55003;SDS011;40900;52.710;6.438;2023-05-14T10:34:36;9.80;;;4.75;;
55003;SDS011;40900;52.710;6.438;2023-05-14T10:37:03;9.45;;;4.50;;
55003;SDS011;40900;52.710;6.438;2023-05-14T10:42:25;10.38;;;4.78;;
55003;SDS011;40900;52.710;6.438;2023-05-14T10:45:00;9.93;;;3.85;;
55003;SDS011;40900;52.710;6.438;2023-05-14T10:47:37;15.30;;;4.95;;
55003;SDS011;40900;52.710;6.438;2023-05-14T10:50:04;12.30;;;5.38;;
55003;SDS011;40900;52.710;6.438;2023-05-14T10:52:32;7.18;;;3.92;;
55003;SDS011;40900;52.710;6.438;2023-05-14T10:55:05;10.85;;;4.78;;
55003;SDS011;40900;52.710;6.438;2023-05-14T10:57:37;9.07;;;4.18;;
55003;SDS011;40900;52.710;6.438;2023-05-14T11:00:04;12.05;;;4.90;;
55003;SDS011;40900;52.710;6.438;2023-05-14T11:02:36;8.63;;;3.90;;
55003;SDS011;40900;52.710;6.438;2023-05-14T11:05:05;9.00;;;4.50;;
55003;SDS011;40900;52.710;6.438;2023-05-14T11:07:48;9.63;;;4.53;;
55003;SDS011;40900;52.710;6.438;2023-05-14T11:12:42;11.27;;;3.75;;
55003;SDS011;40900;52.710;6.438;2023-05-14T11:15:12;10.27;;;4.07;;
55003;SDS011;40900;52.710;6.438;2023-05-14T11:17:40;9.73;;;3.50;;
55003;SDS011;40900;52.710;6.438;2023-05-14T11:20:07;10.27;;;3.70;;
55003;SDS011;40900;52.710;6.438;2023-05-14T11:22:34;6.80;;;3.55;;
55003;SDS011;40900;52.710;6.438;2023-05-14T11:25:01;9.68;;;4.15;;
55003;SDS011;40900;52.710;6.438;2023-05-14T11:27:27;11.52;;;3.80;;
55003;SDS011;40900;52.710;6.438;2023-05-14T11:29:54;9.90;;;3.72;;
55003;SDS011;40900;52.710;6.438;2023-05-14T11:32:20;8.55;;;3.63;;
55003;SDS011;40900;52.710;6.438;2023-05-14T11:34:45;8.10;;;3.70;;
55003;SDS011;40900;52.710;6.438;2023-05-14T11:37:14;9.13;;;4.53;;
55003;SDS011;40900;52.710;6.438;2023-05-14T11:39:48;10.68;;;3.88;;
55003;SDS011;40900;52.710;6.438;2023-05-14T11:42:15;7.35;;;3.60;;
55003;SDS011;40900;52.710;6.438;2023-05-14T11:44:44;6.80;;;3.45;;
55003;SDS011;40900;52.710;6.438;2023-05-14T11:47:11;7.50;;;3.22;;
55003;SDS011;40900;52.710;6.438;2023-05-14T11:49:37;7.93;;;3.13;;
55003;SDS011;40900;52.710;6.438;2023-05-14T11:52:04;7.65;;;3.50;;
55003;SDS011;40900;52.710;6.438;2023-05-14T11:54:31;10.95;;;4.10;;
55003;SDS011;40900;52.710;6.438;2023-05-14T11:56:58;8.23;;;3.65;;
55003;SDS011;40900;52.710;6.438;2023-05-14T11:59:26;11.63;;;3.95;;
55003;SDS011;40900;52.710;6.438;2023-05-14T12:01:56;9.88;;;3.67;;
55003;SDS011;40900;52.710;6.438;2023-05-14T12:04:22;8.32;;;3.60;;
55003;SDS011;40900;52.710;6.438;2023-05-14T12:06:49;7.03;;;2.85;;
55003;SDS011;40900;52.710;6.438;2023-05-14T12:09:15;8.43;;;3.00;;
55003;SDS011;40900;52.710;6.438;2023-05-14T12:11:42;10.27;;;3.67;;
55003;SDS011;40900;52.710;6.438;2023-05-14T12:14:13;10.60;;;3.20;;
55003;SDS011;40900;52.710;6.438;2023-05-14T12:16:41;6.40;;;3.35;;
55003;SDS011;40900;52.710;6.438;2023-05-14T12:19:09;4.82;;;2.47;;
55003;SDS011;40900;52.710;6.438;2023-05-14T12:21:38;10.85;;;3.45;;
55003;SDS011;40900;52.710;6.438;2023-05-14T12:24:08;7.70;;;3.20;;
55003;SDS011;40900;52.710;6.438;2023-05-14T12:26:47;8.63;;;3.55;;
55003;SDS011;40900;52.710;6.438;2023-05-14T12:29:15;7.13;;;2.75;;
55003;SDS011;40900;52.710;6.438;2023-05-14T12:31:48;7.57;;;2.88;;
55003;SDS011;40900;52.710;6.438;2023-05-14T12:34:15;11.30;;;3.25;;
55003;SDS011;40900;52.710;6.438;2023-05-14T12:36:41;5.88;;;2.78;;
55003;SDS011;40900;52.710;6.438;2023-05-14T12:39:07;7.55;;;2.58;;
55003;SDS011;40900;52.710;6.438;2023-05-14T12:41:34;6.30;;;2.70;;
55003;SDS011;40900;52.710;6.438;2023-05-14T12:44:00;6.57;;;2.67;;
55003;SDS011;40900;52.710;6.438;2023-05-14T12:46:27;6.35;;;2.63;;
55003;SDS011;40900;52.710;6.438;2023-05-14T12:48:54;7.70;;;3.03;;
55003;SDS011;40900;52.710;6.438;2023-05-14T12:51:20;11.75;;;2.95;;
55003;SDS011;40900;52.710;6.438;2023-05-14T12:53:46;8.63;;;2.42;;
55003;SDS011;40900;52.710;6.438;2023-05-14T12:56:12;4.28;;;2.20;;
55003;SDS011;40900;52.710;6.438;2023-05-14T12:58:38;8.43;;;2.50;;
55003;SDS011;40900;52.710;6.438;2023-05-14T13:01:04;6.95;;;2.53;;
55003;SDS011;40900;52.710;6.438;2023-05-14T13:03:30;6.47;;;2.78;;
55003;SDS011;40900;52.710;6.438;2023-05-14T13:05:56;5.40;;;3.10;;
55003;SDS011;40900;52.710;6.438;2023-05-14T13:08:23;10.63;;;2.95;;
55003;SDS011;40900;52.710;6.438;2023-05-14T13:10:53;10.75;;;2.85;;
55003;SDS011;40900;52.710;6.438;2023-05-14T13:13:20;8.50;;;3.03;;
55003;SDS011;40900;52.710;6.438;2023-05-14T13:15:46;6.75;;;2.60;;
55003;SDS011;40900;52.710;6.438;2023-05-14T13:18:12;9.48;;;3.13;;
55003;SDS011;40900;52.710;6.438;2023-05-14T13:20:38;9.63;;;2.53;;
55003;SDS011;40900;52.710;6.438;2023-05-14T13:23:05;7.55;;;2.60;;
55003;SDS011;40900;52.710;6.438;2023-05-14T13:25:30;7.88;;;3.00;;
55003;SDS011;40900;52.710;6.438;2023-05-14T13:27:56;11.93;;;3.35;;
55003;SDS011;40900;52.710;6.438;2023-05-14T13:30:22;7.72;;;3.03;;
55003;SDS011;40900;52.710;6.438;2023-05-14T13:32:48;8.77;;;3.00;;
55003;SDS011;40900;52.710;6.438;2023-05-14T13:35:14;7.63;;;2.53;;
55003;SDS011;40900;52.710;6.438;2023-05-14T13:37:41;4.03;;;2.58;;
55003;SDS011;40900;52.710;6.438;2023-05-14T13:40:07;4.80;;;2.70;;
55003;SDS011;40900;52.710;6.438;2023-05-14T13:42:34;10.57;;;2.70;;
55003;SDS011;40900;52.710;6.438;2023-05-14T13:45:00;6.72;;;3.05;;
55003;SDS011;40900;52.710;6.438;2023-05-14T13:47:26;6.15;;;3.10;;
55003;SDS011;40900;52.710;6.438;2023-05-14T13:49:52;7.55;;;3.00;;
55003;SDS011;40900;52.710;6.438;2023-05-14T13:52:19;6.05;;;3.20;;
55003;SDS011;40900;52.710;6.438;2023-05-14T13:54:45;5.10;;;2.80;;
55003;SDS011;40900;52.710;6.438;2023-05-14T13:57:10;6.65;;;2.92;;
55003;SDS011;40900;52.710;6.438;2023-05-14T13:59:36;5.95;;;2.35;;
55003;SDS011;40900;52.710;6.438;2023-05-14T14:02:02;6.10;;;2.53;;
55003;SDS011;40900;52.710;6.438;2023-05-14T14:04:28;7.25;;;2.42;;
55003;SDS011;40900;52.710;6.438;2023-05-14T14:06:54;6.63;;;2.83;;
55003;SDS011;40900;52.710;6.438;2023-05-14T14:09:20;7.78;;;2.90;;
55003;SDS011;40900;52.710;6.438;2023-05-14T14:11:46;7.05;;;3.05;;
55003;SDS011;40900;52.710;6.438;2023-05-14T14:14:12;4.93;;;2.53;;
55003;SDS011;40900;52.710;6.438;2023-05-14T14:16:38;5.32;;;3.00;;
55003;SDS011;40900;52.710;6.438;2023-05-14T14:19:04;6.70;;;2.72;;
55003;SDS011;40900;52.710;6.438;2023-05-14T14:21:31;4.80;;;2.40;;
55003;SDS011;40900;52.710;6.438;2023-05-14T14:23:57;5.18;;;2.78;;
55003;SDS011;40900;52.710;6.438;2023-05-14T14:26:23;4.57;;;2.80;;
55003;SDS011;40900;52.710;6.438;2023-05-14T14:28:49;8.35;;;2.92;;
55003;SDS011;40900;52.710;6.438;2023-05-14T14:31:15;8.15;;;3.00;;
55003;SDS011;40900;52.710;6.438;2023-05-14T14:33:41;6.97;;;3.13;;
55003;SDS011;40900;52.710;6.438;2023-05-14T14:36:07;8.00;;;2.88;;
55003;SDS011;40900;52.710;6.438;2023-05-14T14:38:33;6.93;;;3.10;;
55003;SDS011;40900;52.710;6.438;2023-05-14T14:40:59;11.50;;;3.08;;
55003;SDS011;40900;52.710;6.438;2023-05-14T14:43:27;7.00;;;3.08;;